sensor_id;sensor_type;location;lat;lon;timestamp;P1;durP1;ratioP1;P2;durP2;ratioP2
28926;SDS011;16038;47.692;9.400;2023-07-31T00:02:14;6.68;;;3.35;;
28926;SDS011;16038;47.692;9.400;2023-07-31T00:04:40;5.47;;;3.00;;
28926;SDS011;16038;47.692;9.400;2023-07-31T00:07:05;6.97;;;3.03;;
28926;SDS011;16038;47.692;9.400;2023-07-31T00:09:32;7.95;;;3.13;;
28926;SDS011;16038;47.692;9.400;2023-07-31T00:11:58;6.07;;;3.28;;
28926;SDS011;16038;47.692;9.400;2023-07-31T00:14:23;5.30;;;3.03;;
28926;SDS011;16038;47.692;9.400;2023-07-31T00:16:49;6.00;;;3.10;;
28926;SDS011;16038;47.692;9.400;2023-07-31T00:19:14;7.88;;;3.10;;
28926;SDS011;16038;47.692;9.400;2023-07-31T00:21:40;7.95;;;3.10;;
28926;SDS011;16038;47.692;9.400;2023-07-31T00:24:05;4.78;;;3.15;;
28926;SDS011;16038;47.692;9.400;2023-07-31T00:26:30;7.45;;;3.53;;
28926;SDS011;16038;47.692;9.400;2023-07-31T00:28:56;10.32;;;3.72;;
28926;SDS011;16038;47.692;9.400;2023-07-31T00:31:21;7.03;;;3.30;;
28926;SDS011;16038;47.692;9.400;2023-07-31T00:33:46;6.95;;;2.90;;
28926;SDS011;16038;47.692;9.400;2023-07-31T00:36:12;6.18;;;3.08;;
28926;SDS011;16038;47.692;9.400;2023-07-31T00:38:37;5.18;;;3.47;;
28926;SDS011;16038;47.692;9.400;2023-07-31T00:41:02;5.28;;;3.08;;
28926;SDS011;16038;47.692;9.400;2023-07-31T00:43:28;6.57;;;3.00;;
28926;SDS011;16038;47.692;9.400;2023-07-31T00:45:53;7.18;;;3.53;;
28926;SDS011;16038;47.692;9.400;2023-07-31T00:48:19;4.97;;;2.97;;
28926;SDS011;16038;47.692;9.400;2023-07-31T00:50:44;9.45;;;3.17;;
28926;SDS011;16038;47.692;9.400;2023-07-31T00:53:10;9.15;;;2.97;;
28926;SDS011;16038;47.692;9.400;2023-07-31T00:55:35;6.57;;;2.90;;
28926;SDS011;16038;47.692;9.400;2023-07-31T00:58:01;6.53;;;3.28;;
28926;SDS011;16038;47.692;9.400;2023-07-31T01:00:26;8.07;;;3.10;;
28926;SDS011;16038;47.692;9.400;2023-07-31T01:02:52;7.47;;;3.00;;
28926;SDS011;16038;47.692;9.400;2023-07-31T01:05:19;8.25;;;2.90;;
28926;SDS011;16038;47.692;9.400;2023-07-31T01:11:04;5.82;;;3.13;;
28926;SDS011;16038;47.692;9.400;2023-07-31T01:13:35;5.63;;;3.33;;
28926;SDS011;16038;47.692;9.400;2023-07-31T01:16:01;6.60;;;3.88;;
28926;SDS011;16038;47.692;9.400;2023-07-31T01:18:26;7.15;;;4.05;;
28926;SDS011;16038;47.692;9.400;2023-07-31T01:20:54;7.20;;;4.03;;
28926;SDS011;16038;47.692;9.400;2023-07-31T01:23:45;6.28;;;3.78;;
28926;SDS011;16038;47.692;9.400;2023-07-31T01:26:25;8.02;;;3.88;;
28926;SDS011;16038;47.692;9.400;2023-07-31T01:29:01;7.70;;;4.38;;
28926;SDS011;16038;47.692;9.400;2023-07-31T01:31:32;6.78;;;3.83;;
28926;SDS011;16038;47.692;9.400;2023-07-31T01:34:00;6.57;;;3.67;;
28926;SDS011;16038;47.692;9.400;2023-07-31T01:36:27;7.70;;;3.33;;
28926;SDS011;16038;47.692;9.400;2023-07-31T01:38:57;7.15;;;3.40;;
28926;SDS011;16038;47.692;9.400;2023-07-31T01:41:24;6.93;;;3.50;;
28926;SDS011;16038;47.692;9.400;2023-07-31T01:43:49;6.60;;;3.67;;
28926;SDS011;16038;47.692;9.400;2023-07-31T01:46:14;6.72;;;3.13;;
28926;SDS011;16038;47.692;9.400;2023-07-31T01:48:40;4.68;;;3.17;;
28926;SDS011;16038;47.692;9.400;2023-07-31T01:51:05;7.30;;;3.17;;
28926;SDS011;16038;47.692;9.400;2023-07-31T01:53:31;4.90;;;2.90;;
28926;SDS011;16038;47.692;9.400;2023-07-31T01:55:56;5.57;;;3.30;;
28926;SDS011;16038;47.692;9.400;2023-07-31T01:58:22;5.03;;;2.75;;
28926;SDS011;16038;47.692;9.400;2023-07-31T02:00:47;4.72;;;2.88;;
28926;SDS011;16038;47.692;9.400;2023-07-31T02:03:12;9.20;;;3.00;;
28926;SDS011;16038;47.692;9.400;2023-07-31T02:05:44;5.75;;;3.08;;
28926;SDS011;16038;47.692;9.400;2023-07-31T02:08:11;10.57;;;3.35;;
28926;SDS011;16038;47.692;9.400;2023-07-31T02:10:36;5.25;;;2.60;;
28926;SDS011;16038;47.692;9.400;2023-07-31T02:13:01;10.13;;;3.33;;
28926;SDS011;16038;47.692;9.400;2023-07-31T02:15:29;4.95;;;2.95;;
28926;SDS011;16038;47.692;9.400;2023-07-31T02:17:54;5.03;;;2.60;;
28926;SDS011;16038;47.692;9.400;2023-07-31T02:20:20;8.88;;;2.58;;
28926;SDS011;16038;47.692;9.400;2023-07-31T02:22:45;4.68;;;2.45;;
28926;SDS011;16038;47.692;9.400;2023-07-31T02:25:11;3.35;;;2.55;;
28926;SDS011;16038;47.692;9.400;2023-07-31T02:27:36;8.00;;;2.78;;
28926;SDS011;16038;47.692;9.400;2023-07-31T02:30:02;4.50;;;2.88;;
28926;SDS011;16038;47.692;9.400;2023-07-31T02:32:27;4.32;;;2.70;;
28926;SDS011;16038;47.692;9.400;2023-07-31T02:34:52;9.35;;;3.40;;
28926;SDS011;16038;47.692;9.400;2023-07-31T02:37:18;5.45;;;2.83;;
28926;SDS011;16038;47.692;9.400;2023-07-31T02:39:43;5.45;;;2.58;;
28926;SDS011;16038;47.692;9.400;2023-07-31T02:42:08;4.07;;;2.65;;
28926;SDS011;16038;47.692;9.400;2023-07-31T02:44:34;5.13;;;2.38;;
28926;SDS011;16038;47.692;9.400;2023-07-31T02:46:59;6.05;;;3.15;;
28926;SDS011;16038;47.692;9.400;2023-07-31T02:49:24;6.32;;;2.80;;
28926;SDS011;16038;47.692;9.400;2023-07-31T02:51:50;4.05;;;2.53;;
28926;SDS011;16038;47.692;9.400;2023-07-31T02:54:15;4.90;;;2.92;;
28926;SDS011;16038;47.692;9.400;2023-07-31T02:56:40;6.13;;;3.22;;
28926;SDS011;16038;47.692;9.400;2023-07-31T02:59:06;9.88;;;4.03;;
28926;SDS011;16038;47.692;9.400;2023-07-31T03:01:31;5.13;;;3.10;;
28926;SDS011;16038;47.692;9.400;2023-07-31T03:03:57;7.80;;;3.00;;
28926;SDS011;16038;47.692;9.400;2023-07-31T03:06:22;10.40;;;3.33;;
28926;SDS011;16038;47.692;9.400;2023-07-31T03:08:47;12.60;;;3.40;;
28926;SDS011;16038;47.692;9.400;2023-07-31T03:11:13;5.40;;;2.78;;
28926;SDS011;16038;47.692;9.400;2023-07-31T03:13:38;6.72;;;2.97;;
28926;SDS011;16038;47.692;9.400;2023-07-31T03:16:04;4.63;;;2.80;;
28926;SDS011;16038;47.692;9.400;2023-07-31T03:18:29;5.30;;;2.85;;
28926;SDS011;16038;47.692;9.400;2023-07-31T03:20:54;5.78;;;2.58;;
28926;SDS011;16038;47.692;9.400;2023-07-31T03:23:20;5.68;;;2.53;;
28926;SDS011;16038;47.692;9.400;2023-07-31T03:28:40;5.88;;;2.90;;
28926;SDS011;16038;47.692;9.400;2023-07-31T03:31:05;5.80;;;2.47;;
28926;SDS011;16038;47.692;9.400;2023-07-31T03:33:33;4.40;;;2.28;;
28926;SDS011;16038;47.692;9.400;2023-07-31T03:35:58;6.53;;;3.05;;
28926;SDS011;16038;47.692;9.400;2023-07-31T03:38:23;8.45;;;2.78;;
28926;SDS011;16038;47.692;9.400;2023-07-31T03:40:49;4.53;;;2.50;;
28926;SDS011;16038;47.692;9.400;2023-07-31T03:43:15;4.25;;;2.65;;
28926;SDS011;16038;47.692;9.400;2023-07-31T03:45:40;6.40;;;3.10;;
28926;SDS011;16038;47.692;9.400;2023-07-31T03:48:06;8.68;;;2.95;;
28926;SDS011;16038;47.692;9.400;2023-07-31T03:50:32;9.73;;;3.22;;
28926;SDS011;16038;47.692;9.400;2023-07-31T03:52:58;7.00;;;3.20;;
28926;SDS011;16038;47.692;9.400;2023-07-31T03:55:23;4.10;;;2.58;;
28926;SDS011;16038;47.692;9.400;2023-07-31T03:57:48;6.97;;;3.08;;
28926;SDS011;16038;47.692;9.400;2023-07-31T04:00:14;4.88;;;3.30;;
28926;SDS011;16038;47.692;9.400;2023-07-31T04:02:39;4.10;;;2.88;;
28926;SDS011;16038;47.692;9.400;2023-07-31T04:05:05;12.50;;;2.85;;
28926;SDS011;16038;47.692;9.400;2023-07-31T04:07:31;5.20;;;2.97;;
28926;SDS011;16038;47.692;9.400;2023-07-31T04:09:56;8.02;;;2.95;;
28926;SDS011;16038;47.692;9.400;2023-07-31T04:12:22;6.45;;;2.67;;
28926;SDS011;16038;47.692;9.400;2023-07-31T04:14:48;8.38;;;2.75;;
28926;SDS011;16038;47.692;9.400;2023-07-31T04:17:13;5.38;;;2.60;;
28926;SDS011;16038;47.692;9.400;2023-07-31T04:19:38;5.15;;;2.70;;
28926;SDS011;16038;47.692;9.400;2023-07-31T04:22:04;5.50;;;2.88;;
28926;SDS011;16038;47.692;9.400;2023-07-31T04:24:29;6.10;;;3.20;;
28926;SDS011;16038;47.692;9.400;2023-07-31T04:26:55;6.65;;;2.85;;
28926;SDS011;16038;47.692;9.400;2023-07-31T04:29:21;8.15;;;3.08;;
28926;SDS011;16038;47.692;9.400;2023-07-31T04:31:47;8.98;;;2.70;;
28926;SDS011;16038;47.692;9.400;2023-07-31T04:34:13;9.32;;;2.80;;
28926;SDS011;16038;47.692;9.400;2023-07-31T04:36:39;5.63;;;2.85;;
28926;SDS011;16038;47.692;9.400;2023-07-31T04:39:04;6.03;;;3.08;;
28926;SDS011;16038;47.692;9.400;2023-07-31T04:41:30;4.70;;;2.67;;
28926;SDS011;16038;47.692;9.400;2023-07-31T04:43:55;4.50;;;2.78;;
28926;SDS011;16038;47.692;9.400;2023-07-31T04:46:20;5.57;;;2.58;;
28926;SDS011;16038;47.692;9.400;2023-07-31T04:48:46;5.00;;;2.55;;
28926;SDS011;16038;47.692;9.400;2023-07-31T04:51:11;6.50;;;2.80;;
28926;SDS011;16038;47.692;9.400;2023-07-31T04:53:38;6.22;;;3.28;;
28926;SDS011;16038;47.692;9.400;2023-07-31T04:56:03;6.25;;;2.55;;
28926;SDS011;16038;47.692;9.400;2023-07-31T04:58:29;7.45;;;3.00;;
28926;SDS011;16038;47.692;9.400;2023-07-31T05:00:54;9.63;;;3.08;;
28926;SDS011;16038;47.692;9.400;2023-07-31T05:03:19;6.47;;;3.08;;
28926;SDS011;16038;47.692;9.400;2023-07-31T05:05:45;6.13;;;3.40;;
28926;SDS011;16038;47.692;9.400;2023-07-31T05:08:10;6.78;;;4.35;;
28926;SDS011;16038;47.692;9.400;2023-07-31T05:10:36;7.60;;;4.03;;
28926;SDS011;16038;47.692;9.400;2023-07-31T05:13:01;5.75;;;3.28;;
28926;SDS011;16038;47.692;9.400;2023-07-31T05:15:27;7.25;;;4.00;;
28926;SDS011;16038;47.692;9.400;2023-07-31T05:17:52;7.80;;;3.47;;
28926;SDS011;16038;47.692;9.400;2023-07-31T05:20:17;7.22;;;3.20;;
28926;SDS011;16038;47.692;9.400;2023-07-31T05:22:43;6.82;;;3.00;;
28926;SDS011;16038;47.692;9.400;2023-07-31T05:25:08;4.07;;;2.95;;
28926;SDS011;16038;47.692;9.400;2023-07-31T05:27:33;5.38;;;3.45;;
28926;SDS011;16038;47.692;9.400;2023-07-31T05:29:59;8.05;;;2.90;;
28926;SDS011;16038;47.692;9.400;2023-07-31T05:32:24;6.60;;;2.95;;
28926;SDS011;16038;47.692;9.400;2023-07-31T05:34:53;8.27;;;2.50;;
28926;SDS011;16038;47.692;9.400;2023-07-31T05:37:18;4.47;;;2.45;;
28926;SDS011;16038;47.692;9.400;2023-07-31T05:39:44;4.95;;;2.40;;
28926;SDS011;16038;47.692;9.400;2023-07-31T05:42:09;5.57;;;2.55;;
28926;SDS011;16038;47.692;9.400;2023-07-31T05:44:35;7.13;;;3.10;;
28926;SDS011;16038;47.692;9.400;2023-07-31T05:47:00;7.22;;;3.25;;
28926;SDS011;16038;47.692;9.400;2023-07-31T05:49:26;6.18;;;3.08;;
28926;SDS011;16038;47.692;9.400;2023-07-31T05:51:51;7.25;;;3.53;;
28926;SDS011;16038;47.692;9.400;2023-07-31T05:54:17;7.95;;;3.45;;
28926;SDS011;16038;47.692;9.400;2023-07-31T05:56:42;6.43;;;3.40;;
28926;SDS011;16038;47.692;9.400;2023-07-31T05:59:08;4.82;;;2.83;;
28926;SDS011;16038;47.692;9.400;2023-07-31T06:01:35;9.68;;;3.40;;
28926;SDS011;16038;47.692;9.400;2023-07-31T06:04:00;11.38;;;4.72;;
28926;SDS011;16038;47.692;9.400;2023-07-31T06:06:27;6.72;;;3.50;;
28926;SDS011;16038;47.692;9.400;2023-07-31T06:08:52;8.60;;;3.30;;
28926;SDS011;16038;47.692;9.400;2023-07-31T06:11:18;5.68;;;2.78;;
28926;SDS011;16038;47.692;9.400;2023-07-31T06:13:45;5.85;;;2.80;;
28926;SDS011;16038;47.692;9.400;2023-07-31T06:16:12;7.75;;;2.75;;
28926;SDS011;16038;47.692;9.400;2023-07-31T06:18:37;7.10;;;2.85;;
28926;SDS011;16038;47.692;9.400;2023-07-31T06:21:03;7.18;;;3.20;;
28926;SDS011;16038;47.692;9.400;2023-07-31T06:23:28;5.18;;;3.00;;
28926;SDS011;16038;47.692;9.400;2023-07-31T06:25:53;5.68;;;2.92;;
28926;SDS011;16038;47.692;9.400;2023-07-31T06:28:19;7.47;;;2.25;;
28926;SDS011;16038;47.692;9.400;2023-07-31T06:30:44;7.28;;;3.00;;
28926;SDS011;16038;47.692;9.400;2023-07-31T06:33:10;7.68;;;2.55;;
28926;SDS011;16038;47.692;9.400;2023-07-31T06:35:35;4.25;;;1.75;;
28926;SDS011;16038;47.692;9.400;2023-07-31T06:38:00;4.00;;;1.83;;
28926;SDS011;16038;47.692;9.400;2023-07-31T06:40:27;4.28;;;1.77;;
28926;SDS011;16038;47.692;9.400;2023-07-31T06:42:52;8.07;;;1.73;;
28926;SDS011;16038;47.692;9.400;2023-07-31T06:45:18;10.57;;;2.08;;
28926;SDS011;16038;47.692;9.400;2023-07-31T06:47:43;7.00;;;2.35;;
28926;SDS011;16038;47.692;9.400;2023-07-31T06:50:09;4.28;;;1.67;;
28926;SDS011;16038;47.692;9.400;2023-07-31T06:52:34;9.40;;;1.88;;
28926;SDS011;16038;47.692;9.400;2023-07-31T06:55:03;6.38;;;1.58;;
28926;SDS011;16038;47.692;9.400;2023-07-31T06:57:43;4.00;;;1.60;;
28926;SDS011;16038;47.692;9.400;2023-07-31T07:00:08;8.52;;;1.48;;
28926;SDS011;16038;47.692;9.400;2023-07-31T07:02:34;7.25;;;1.90;;
28926;SDS011;16038;47.692;9.400;2023-07-31T07:04:59;8.77;;;1.85;;
28926;SDS011;16038;47.692;9.400;2023-07-31T07:07:24;6.07;;;1.50;;
28926;SDS011;16038;47.692;9.400;2023-07-31T07:09:50;6.35;;;1.60;;
28926;SDS011;16038;47.692;9.400;2023-07-31T07:12:15;5.50;;;1.73;;
28926;SDS011;16038;47.692;9.400;2023-07-31T07:14:41;9.30;;;1.77;;
28926;SDS011;16038;47.692;9.400;2023-07-31T07:17:06;5.43;;;1.65;;
28926;SDS011;16038;47.692;9.400;2023-07-31T07:19:32;5.80;;;1.67;;
28926;SDS011;16038;47.692;9.400;2023-07-31T07:21:57;5.28;;;1.77;;
28926;SDS011;16038;47.692;9.400;2023-07-31T07:24:24;7.65;;;2.10;;
28926;SDS011;16038;47.692;9.400;2023-07-31T07:26:50;3.97;;;1.80;;
28926;SDS011;16038;47.692;9.400;2023-07-31T07:29:15;5.03;;;1.75;;
28926;SDS011;16038;47.692;9.400;2023-07-31T07:31:40;6.55;;;1.80;;
28926;SDS011;16038;47.692;9.400;2023-07-31T07:34:06;4.75;;;1.50;;
28926;SDS011;16038;47.692;9.400;2023-07-31T07:36:31;10.23;;;3.95;;
28926;SDS011;16038;47.692;9.400;2023-07-31T07:38:57;5.57;;;1.50;;
28926;SDS011;16038;47.692;9.400;2023-07-31T07:41:23;6.18;;;1.58;;
28926;SDS011;16038;47.692;9.400;2023-07-31T07:43:48;9.38;;;1.67;;
28926;SDS011;16038;47.692;9.400;2023-07-31T07:46:16;8.38;;;2.13;;
28926;SDS011;16038;47.692;9.400;2023-07-31T07:48:41;6.82;;;2.10;;
28926;SDS011;16038;47.692;9.400;2023-07-31T07:51:07;4.85;;;1.80;;
28926;SDS011;16038;47.692;9.400;2023-07-31T07:53:32;8.43;;;1.55;;
28926;SDS011;16038;47.692;9.400;2023-07-31T07:55:58;6.13;;;2.22;;
28926;SDS011;16038;47.692;9.400;2023-07-31T07:58:23;3.38;;;1.58;;
28926;SDS011;16038;47.692;9.400;2023-07-31T08:00:51;8.20;;;2.25;;
28926;SDS011;16038;47.692;9.400;2023-07-31T08:03:17;7.50;;;2.20;;
28926;SDS011;16038;47.692;9.400;2023-07-31T08:05:43;7.28;;;1.90;;
28926;SDS011;16038;47.692;9.400;2023-07-31T08:08:13;7.05;;;1.77;;
28926;SDS011;16038;47.692;9.400;2023-07-31T08:10:40;7.10;;;1.83;;
28926;SDS011;16038;47.692;9.400;2023-07-31T08:13:05;4.15;;;1.83;;
28926;SDS011;16038;47.692;9.400;2023-07-31T08:15:30;7.20;;;1.70;;
28926;SDS011;16038;47.692;9.400;2023-07-31T08:17:56;5.55;;;2.20;;
28926;SDS011;16038;47.692;9.400;2023-07-31T08:20:21;6.35;;;1.90;;
28926;SDS011;16038;47.692;9.400;2023-07-31T08:22:47;6.78;;;2.28;;
28926;SDS011;16038;47.692;9.400;2023-07-31T08:25:12;5.80;;;1.83;;
28926;SDS011;16038;47.692;9.400;2023-07-31T08:27:37;7.32;;;1.67;;
28926;SDS011;16038;47.692;9.400;2023-07-31T08:30:03;3.50;;;1.65;;
28926;SDS011;16038;47.692;9.400;2023-07-31T08:32:28;6.13;;;2.10;;
28926;SDS011;16038;47.692;9.400;2023-07-31T08:34:54;7.30;;;2.25;;
28926;SDS011;16038;47.692;9.400;2023-07-31T08:37:19;6.18;;;1.60;;
28926;SDS011;16038;47.692;9.400;2023-07-31T08:39:44;7.13;;;1.98;;
28926;SDS011;16038;47.692;9.400;2023-07-31T08:42:10;4.80;;;1.60;;
28926;SDS011;16038;47.692;9.400;2023-07-31T08:44:35;6.20;;;2.00;;
28926;SDS011;16038;47.692;9.400;2023-07-31T08:47:02;4.15;;;1.30;;
28926;SDS011;16038;47.692;9.400;2023-07-31T08:49:28;6.60;;;1.75;;
28926;SDS011;16038;47.692;9.400;2023-07-31T08:51:55;2.65;;;1.23;;
28926;SDS011;16038;47.692;9.400;2023-07-31T08:54:23;4.32;;;1.67;;
28926;SDS011;16038;47.692;9.400;2023-07-31T08:56:48;5.00;;;1.40;;
28926;SDS011;16038;47.692;9.400;2023-07-31T08:59:15;8.75;;;1.83;;
28926;SDS011;16038;47.692;9.400;2023-07-31T09:01:43;4.90;;;1.52;;
28926;SDS011;16038;47.692;9.400;2023-07-31T09:04:13;4.72;;;1.40;;
28926;SDS011;16038;47.692;9.400;2023-07-31T09:06:41;7.20;;;1.67;;
28926;SDS011;16038;47.692;9.400;2023-07-31T09:09:08;4.07;;;1.48;;
28926;SDS011;16038;47.692;9.400;2023-07-31T09:11:34;5.75;;;1.65;;
28926;SDS011;16038;47.692;9.400;2023-07-31T09:13:59;5.68;;;1.75;;
28926;SDS011;16038;47.692;9.400;2023-07-31T09:16:28;3.30;;;1.45;;
28926;SDS011;16038;47.692;9.400;2023-07-31T09:18:57;6.38;;;1.60;;
28926;SDS011;16038;47.692;9.400;2023-07-31T09:21:23;6.20;;;1.70;;
28926;SDS011;16038;47.692;9.400;2023-07-31T09:23:50;4.60;;;1.50;;
28926;SDS011;16038;47.692;9.400;2023-07-31T09:26:31;6.57;;;2.08;;
28926;SDS011;16038;47.692;9.400;2023-07-31T09:28:59;4.97;;;1.60;;
28926;SDS011;16038;47.692;9.400;2023-07-31T09:31:32;5.38;;;1.70;;
28926;SDS011;16038;47.692;9.400;2023-07-31T09:34:03;5.22;;;1.60;;
28926;SDS011;16038;47.692;9.400;2023-07-31T09:36:29;5.32;;;1.60;;
28926;SDS011;16038;47.692;9.400;2023-07-31T09:38:55;6.70;;;1.75;;
28926;SDS011;16038;47.692;9.400;2023-07-31T09:41:21;8.20;;;1.70;;
28926;SDS011;16038;47.692;9.400;2023-07-31T09:43:53;5.78;;;1.58;;
28926;SDS011;16038;47.692;9.400;2023-07-31T09:46:20;7.50;;;2.08;;
28926;SDS011;16038;47.692;9.400;2023-07-31T09:48:45;5.47;;;1.63;;
28926;SDS011;16038;47.692;9.400;2023-07-31T09:51:11;5.75;;;1.38;;
28926;SDS011;16038;47.692;9.400;2023-07-31T09:53:37;4.47;;;1.38;;
28926;SDS011;16038;47.692;9.400;2023-07-31T09:56:02;8.40;;;2.35;;
28926;SDS011;16038;47.692;9.400;2023-07-31T09:58:29;6.85;;;1.90;;
28926;SDS011;16038;47.692;9.400;2023-07-31T10:00:58;4.82;;;1.33;;
28926;SDS011;16038;47.692;9.400;2023-07-31T10:03:24;5.07;;;1.83;;
28926;SDS011;16038;47.692;9.400;2023-07-31T10:05:52;5.78;;;1.70;;
28926;SDS011;16038;47.692;9.400;2023-07-31T10:08:21;7.45;;;1.45;;
28926;SDS011;16038;47.692;9.400;2023-07-31T10:10:52;7.82;;;1.60;;
28926;SDS011;16038;47.692;9.400;2023-07-31T10:13:17;4.32;;;1.52;;
28926;SDS011;16038;47.692;9.400;2023-07-31T10:18:12;7.47;;;1.80;;
28926;SDS011;16038;47.692;9.400;2023-07-31T10:20:38;3.28;;;1.40;;
28926;SDS011;16038;47.692;9.400;2023-07-31T10:23:05;9.25;;;1.90;;
28926;SDS011;16038;47.692;9.400;2023-07-31T10:25:31;5.43;;;1.55;;
28926;SDS011;16038;47.692;9.400;2023-07-31T10:27:57;5.18;;;1.80;;
28926;SDS011;16038;47.692;9.400;2023-07-31T10:30:27;4.20;;;1.55;;
28926;SDS011;16038;47.692;9.400;2023-07-31T10:32:55;4.38;;;1.60;;
28926;SDS011;16038;47.692;9.400;2023-07-31T10:35:22;4.03;;;1.50;;
28926;SDS011;16038;47.692;9.400;2023-07-31T10:37:47;6.45;;;2.00;;
28926;SDS011;16038;47.692;9.400;2023-07-31T10:40:18;6.30;;;1.58;;
28926;SDS011;16038;47.692;9.400;2023-07-31T10:42:51;6.32;;;1.70;;
28926;SDS011;16038;47.692;9.400;2023-07-31T10:45:24;7.18;;;1.85;;
28926;SDS011;16038;47.692;9.400;2023-07-31T10:47:58;7.53;;;2.15;;
28926;SDS011;16038;47.692;9.400;2023-07-31T10:50:28;4.88;;;1.70;;
28926;SDS011;16038;47.692;9.400;2023-07-31T10:52:57;8.32;;;2.13;;
28926;SDS011;16038;47.692;9.400;2023-07-31T10:58:10;4.43;;;1.70;;
28926;SDS011;16038;47.692;9.400;2023-07-31T11:00:38;5.57;;;1.63;;
28926;SDS011;16038;47.692;9.400;2023-07-31T11:03:13;5.75;;;2.08;;
28926;SDS011;16038;47.692;9.400;2023-07-31T11:13:27;6.38;;;1.95;;
28926;SDS011;16038;47.692;9.400;2023-07-31T11:15:54;5.05;;;2.08;;
28926;SDS011;16038;47.692;9.400;2023-07-31T11:18:19;6.07;;;1.70;;
28926;SDS011;16038;47.692;9.400;2023-07-31T11:20:45;6.07;;;1.85;;
28926;SDS011;16038;47.692;9.400;2023-07-31T11:23:11;4.22;;;1.70;;
28926;SDS011;16038;47.692;9.400;2023-07-31T11:25:37;4.32;;;1.80;;
28926;SDS011;16038;47.692;9.400;2023-07-31T11:28:10;7.30;;;2.20;;
28926;SDS011;16038;47.692;9.400;2023-07-31T11:30:37;6.75;;;1.92;;
28926;SDS011;16038;47.692;9.400;2023-07-31T11:33:03;6.28;;;1.67;;
28926;SDS011;16038;47.692;9.400;2023-07-31T11:35:32;7.35;;;1.75;;
28926;SDS011;16038;47.692;9.400;2023-07-31T11:37:59;6.65;;;2.00;;
28926;SDS011;16038;47.692;9.400;2023-07-31T11:40:25;5.03;;;1.70;;
28926;SDS011;16038;47.692;9.400;2023-07-31T11:42:57;5.95;;;1.58;;
28926;SDS011;16038;47.692;9.400;2023-07-31T11:45:26;6.30;;;2.40;;
28926;SDS011;16038;47.692;9.400;2023-07-31T11:47:53;10.45;;;2.08;;
28926;SDS011;16038;47.692;9.400;2023-07-31T11:50:19;3.85;;;1.60;;
28926;SDS011;16038;47.692;9.400;2023-07-31T11:52:46;6.05;;;1.60;;
28926;SDS011;16038;47.692;9.400;2023-07-31T11:55:15;6.10;;;1.85;;
28926;SDS011;16038;47.692;9.400;2023-07-31T11:57:41;5.78;;;1.73;;
28926;SDS011;16038;47.692;9.400;2023-07-31T12:00:09;5.43;;;1.80;;
28926;SDS011;16038;47.692;9.400;2023-07-31T12:02:36;7.63;;;1.80;;
28926;SDS011;16038;47.692;9.400;2023-07-31T12:05:04;6.03;;;1.75;;
28926;SDS011;16038;47.692;9.400;2023-07-31T12:10:29;3.83;;;1.95;;
28926;SDS011;16038;47.692;9.400;2023-07-31T12:15:28;7.05;;;2.13;;
28926;SDS011;16038;47.692;9.400;2023-07-31T12:18:00;4.13;;;1.50;;
28926;SDS011;16038;47.692;9.400;2023-07-31T12:20:29;4.72;;;1.73;;
28926;SDS011;16038;47.692;9.400;2023-07-31T12:22:55;7.53;;;1.60;;
28926;SDS011;16038;47.692;9.400;2023-07-31T12:25:22;4.70;;;1.58;;
28926;SDS011;16038;47.692;9.400;2023-07-31T12:27:48;5.13;;;1.90;;
28926;SDS011;16038;47.692;9.400;2023-07-31T12:33:13;3.83;;;1.50;;
28926;SDS011;16038;47.692;9.400;2023-07-31T12:35:43;6.63;;;1.63;;
28926;SDS011;16038;47.692;9.400;2023-07-31T12:38:11;4.28;;;1.80;;
28926;SDS011;16038;47.692;9.400;2023-07-31T12:40:38;4.47;;;1.92;;
28926;SDS011;16038;47.692;9.400;2023-07-31T12:43:04;4.60;;;1.63;;
28926;SDS011;16038;47.692;9.400;2023-07-31T12:45:30;4.85;;;1.67;;
28926;SDS011;16038;47.692;9.400;2023-07-31T12:47:56;5.15;;;1.98;;
28926;SDS011;16038;47.692;9.400;2023-07-31T12:50:22;7.75;;;1.90;;
28926;SDS011;16038;47.692;9.400;2023-07-31T12:52:48;4.82;;;1.60;;
28926;SDS011;16038;47.692;9.400;2023-07-31T12:55:14;5.00;;;1.80;;
28926;SDS011;16038;47.692;9.400;2023-07-31T12:57:39;4.60;;;1.55;;
28926;SDS011;16038;47.692;9.400;2023-07-31T13:00:06;3.08;;;1.65;;
28926;SDS011;16038;47.692;9.400;2023-07-31T13:02:32;9.48;;;3.10;;
28926;SDS011;16038;47.692;9.400;2023-07-31T13:04:57;4.78;;;1.50;;
28926;SDS011;16038;47.692;9.400;2023-07-31T13:07:22;4.55;;;1.40;;
28926;SDS011;16038;47.692;9.400;2023-07-31T13:09:48;4.97;;;1.67;;
28926;SDS011;16038;47.692;9.400;2023-07-31T13:12:13;5.57;;;1.50;;
28926;SDS011;16038;47.692;9.400;2023-07-31T13:14:39;6.97;;;1.80;;
28926;SDS011;16038;47.692;9.400;2023-07-31T13:17:04;4.75;;;1.55;;
28926;SDS011;16038;47.692;9.400;2023-07-31T13:19:30;6.97;;;1.92;;
28926;SDS011;16038;47.692;9.400;2023-07-31T13:21:55;5.25;;;1.50;;
28926;SDS011;16038;47.692;9.400;2023-07-31T13:24:20;5.82;;;1.80;;
28926;SDS011;16038;47.692;9.400;2023-07-31T13:26:46;5.53;;;1.80;;
28926;SDS011;16038;47.692;9.400;2023-07-31T13:29:11;6.22;;;1.80;;
28926;SDS011;16038;47.692;9.400;2023-07-31T13:31:36;5.75;;;1.50;;
28926;SDS011;16038;47.692;9.400;2023-07-31T13:34:02;11.20;;;7.55;;
28926;SDS011;16038;47.692;9.400;2023-07-31T13:36:28;4.55;;;1.92;;
28926;SDS011;16038;47.692;9.400;2023-07-31T13:38:53;3.88;;;1.55;;
28926;SDS011;16038;47.692;9.400;2023-07-31T13:41:18;5.72;;;1.60;;
28926;SDS011;16038;47.692;9.400;2023-07-31T13:43:44;3.25;;;1.55;;
28926;SDS011;16038;47.692;9.400;2023-07-31T13:46:09;4.53;;;1.85;;
28926;SDS011;16038;47.692;9.400;2023-07-31T13:48:36;5.93;;;1.98;;
28926;SDS011;16038;47.692;9.400;2023-07-31T13:51:01;5.72;;;1.65;;
28926;SDS011;16038;47.692;9.400;2023-07-31T13:53:27;3.15;;;1.50;;
28926;SDS011;16038;47.692;9.400;2023-07-31T13:55:52;3.38;;;1.48;;
28926;SDS011;16038;47.692;9.400;2023-07-31T13:58:18;6.40;;;1.83;;
28926;SDS011;16038;47.692;9.400;2023-07-31T14:00:43;3.63;;;1.55;;
28926;SDS011;16038;47.692;9.400;2023-07-31T14:03:08;3.45;;;1.70;;
28926;SDS011;16038;47.692;9.400;2023-07-31T14:05:34;5.13;;;2.10;;
28926;SDS011;16038;47.692;9.400;2023-07-31T14:08:00;5.55;;;1.75;;
28926;SDS011;16038;47.692;9.400;2023-07-31T14:10:25;4.15;;;1.83;;
28926;SDS011;16038;47.692;9.400;2023-07-31T14:12:51;7.28;;;1.90;;
28926;SDS011;16038;47.692;9.400;2023-07-31T14:15:16;3.38;;;1.50;;
28926;SDS011;16038;47.692;9.400;2023-07-31T14:17:42;5.07;;;1.85;;
28926;SDS011;16038;47.692;9.400;2023-07-31T14:20:07;4.15;;;1.55;;
28926;SDS011;16038;47.692;9.400;2023-07-31T14:22:33;4.22;;;1.88;;
28926;SDS011;16038;47.692;9.400;2023-07-31T14:24:59;5.25;;;1.98;;
28926;SDS011;16038;47.692;9.400;2023-07-31T14:27:25;5.78;;;2.42;;
28926;SDS011;16038;47.692;9.400;2023-07-31T14:29:51;4.13;;;1.88;;
28926;SDS011;16038;47.692;9.400;2023-07-31T14:32:16;5.53;;;2.03;;
28926;SDS011;16038;47.692;9.400;2023-07-31T14:34:42;4.05;;;2.05;;
28926;SDS011;16038;47.692;9.400;2023-07-31T14:37:07;6.95;;;2.17;;
28926;SDS011;16038;47.692;9.400;2023-07-31T14:39:33;6.45;;;2.30;;
28926;SDS011;16038;47.692;9.400;2023-07-31T14:41:58;5.70;;;2.15;;
28926;SDS011;16038;47.692;9.400;2023-07-31T14:44:23;3.83;;;1.60;;
28926;SDS011;16038;47.692;9.400;2023-07-31T14:46:49;4.60;;;2.65;;
28926;SDS011;16038;47.692;9.400;2023-07-31T14:49:14;3.60;;;1.65;;
28926;SDS011;16038;47.692;9.400;2023-07-31T14:51:39;3.78;;;2.25;;
28926;SDS011;16038;47.692;9.400;2023-07-31T14:54:05;7.30;;;2.10;;
28926;SDS011;16038;47.692;9.400;2023-07-31T14:56:30;4.78;;;2.33;;
28926;SDS011;16038;47.692;9.400;2023-07-31T14:58:56;5.75;;;1.92;;
28926;SDS011;16038;47.692;9.400;2023-07-31T15:01:22;3.25;;;1.98;;
28926;SDS011;16038;47.692;9.400;2023-07-31T15:03:47;5.97;;;2.45;;
28926;SDS011;16038;47.692;9.400;2023-07-31T15:06:12;4.53;;;2.25;;
28926;SDS011;16038;47.692;9.400;2023-07-31T15:08:38;5.78;;;2.25;;
28926;SDS011;16038;47.692;9.400;2023-07-31T15:11:03;4.75;;;2.22;;